Terminal Aerodrome Forecast
Issued by NWS Grand Rapids, MI

Home | Current Version | Previous Version | Text Only | Print | Product List | Glossary On
Versions: 1 2 3 4 5 6 7 8 9 10 11 12 13 14 15 16 17 18 19 20 21 22
000
FTUS43 KGRR 071120
TAFGRR
TAF
KGRR 071120Z 0712/0812 20007KT P6SM OVC017
     FM071300 28008KT 4SM -RA OVC005
     FM071500 32012G22KT P6SM OVC015
     FM071800 33014G25KT P6SM BKN025
     FM072100 35012KT P6SM BKN250
     FM080300 36004KT P6SM SKC=

USA.gov is the U.S. government's official web portal to all federal, state and local government web resources and services.